createdAt,value
2022-12-08T00:01:35.087Z,99972.75
2022-12-08T00:04:04.886Z,99968.44
2022-12-08T00:06:55.991Z,99965.25
2022-12-08T00:09:34.728Z,99974.91
2022-12-08T00:12:09.593Z,99960.19
2022-12-08T00:14:40.694Z,99966.66
2022-12-08T00:17:11.676Z,99960.63
2022-12-08T00:19:41.117Z,99964.66
2022-12-08T00:22:12.856Z,99961.13
2022-12-08T00:24:44.890Z,99951.28
2022-12-08T00:27:15.424Z,99943.59
2022-12-08T00:29:43.570Z,99935.66
2022-12-08T00:32:11.493Z,99930.38
2022-12-08T00:34:39.329Z,99927.69
2022-12-08T00:37:07.030Z,99933.47
2022-12-08T00:39:36.222Z,99928.34
2022-12-08T00:42:13.617Z,99930.25
2022-12-08T00:44:43.990Z,99919.88
2022-12-08T00:47:13.770Z,99919.53
2022-12-08T00:49:41.864Z,99917.97
2022-12-08T00:52:09.619Z,99924.31
2022-12-08T00:54:38.937Z,99916.22
2022-12-08T00:57:06.621Z,99921.22
2022-12-08T00:59:34.644Z,99919.44
2022-12-08T01:02:02.603Z,99914.63
2022-12-08T01:04:30.291Z,99911.56
2022-12-08T01:06:58.004Z,99907.72
2022-12-08T01:09:25.861Z,99902.59
2022-12-08T01:11:55.416Z,99902.22
2022-12-08T01:14:23.171Z,99906.72
2022-12-08T01:16:51.050Z,99900.59
2022-12-08T01:19:18.888Z,99908.53
2022-12-08T01:21:47.234Z,99904.97
2022-12-08T01:24:19.104Z,99906.38
2022-12-08T01:26:48.601Z,99908.00
2022-12-08T01:29:18.062Z,99914.88
2022-12-08T01:31:45.849Z,99904.78
2022-12-08T01:34:14.076Z,99909.03
2022-12-08T01:36:44.188Z,99915.28
2022-12-08T01:39:17.014Z,99904.91
2022-12-08T01:41:46.475Z,99907.59
2022-12-08T01:44:57.705Z,99904.06
2022-12-08T01:47:32.470Z,99900.97
2022-12-08T01:50:00.909Z,99906.03
2022-12-08T01:52:38.234Z,99900.75
2022-12-08T01:55:15.220Z,99900.94
2022-12-08T01:57:49.084Z,99894.41
2022-12-08T02:00:22.089Z,99892.13
2022-12-08T02:02:57.301Z,99885.38
2022-12-08T02:05:30.680Z,99887.09
2022-12-08T02:08:01.271Z,99885.75
2022-12-08T02:10:34.248Z,99885.91
2022-12-08T02:13:06.587Z,99880.69
2022-12-08T02:15:48.735Z,99875.50
2022-12-08T02:18:37.317Z,99873.00
2022-12-08T02:21:12.273Z,99876.13
2022-12-08T02:23:53.910Z,99874.03
2022-12-08T02:27:22.755Z,99866.59
2022-12-08T02:30:18.465Z,99865.69
2022-12-08T02:33:39.351Z,99863.78
2022-12-08T02:36:21.126Z,99856.34
2022-12-08T02:39:02.826Z,99850.81
2022-12-08T02:41:42.358Z,99850.19
2022-12-08T02:44:21.039Z,99844.41
2022-12-08T02:46:55.749Z,99837.31
2022-12-08T02:49:29.174Z,99831.00
2022-12-08T02:52:08.119Z,99833.47
2022-12-08T02:54:37.148Z,99832.19
2022-12-08T02:57:32.084Z,99826.19
2022-12-08T03:00:09.068Z,99825.25
2022-12-08T03:02:56.854Z,99813.16
2022-12-08T03:05:52.040Z,99818.00
2022-12-08T03:08:33.039Z,99812.00
2022-12-08T03:11:11.618Z,99799.50
2022-12-08T03:13:45.644Z,99799.63
2022-12-08T03:16:20.466Z,99801.94
2022-12-08T03:18:56.615Z,99800.34
2022-12-08T03:21:25.361Z,99796.72
2022-12-08T03:23:57.693Z,99796.59
2022-12-08T03:26:33.745Z,99795.63
2022-12-08T03:29:01.901Z,99786.22
2022-12-08T03:31:39.525Z,99788.22
2022-12-08T03:34:10.734Z,99786.44
2022-12-08T03:36:38.640Z,99780.63
2022-12-08T03:39:07.697Z,99781.31
2022-12-08T03:41:35.617Z,99786.56
2022-12-08T03:44:03.487Z,99776.41
2022-12-08T03:46:31.652Z,99768.34
2022-12-08T03:48:59.442Z,99764.19
2022-12-08T03:51:27.391Z,99757.66
2022-12-08T03:53:55.324Z,99751.03
2022-12-08T03:56:28.115Z,99752.69
2022-12-08T03:58:56.714Z,99750.31
2022-12-08T04:01:25.415Z,99745.75
2022-12-08T04:03:54.438Z,99741.34
2022-12-08T04:06:23.283Z,99749.44
2022-12-08T04:08:51.885Z,99738.59
2022-12-08T04:11:20.559Z,99741.22
2022-12-08T04:13:49.643Z,99738.81
2022-12-08T04:16:20.948Z,99737.72
2022-12-08T04:18:48.861Z,99732.16
2022-12-08T04:21:17.433Z,99732.88
2022-12-08T04:23:46.032Z,99726.53
2022-12-08T04:26:15.286Z,99722.28
2022-12-08T04:28:43.536Z,99730.59
2022-12-08T04:31:12.957Z,99727.56
2022-12-08T04:33:40.894Z,99726.63
2022-12-08T04:36:09.622Z,99716.94
2022-12-08T04:38:37.558Z,99721.75
2022-12-08T04:41:05.311Z,99733.34
2022-12-08T04:43:33.321Z,99719.41
2022-12-08T04:46:01.139Z,99722.53
2022-12-08T04:48:30.228Z,99720.81
2022-12-08T04:50:57.942Z,99725.28
2022-12-08T04:53:26.779Z,99734.31
2022-12-08T04:55:54.658Z,99724.41
2022-12-08T04:58:22.592Z,99725.94
2022-12-08T05:00:51.013Z,99712.53
2022-12-08T05:03:22.574Z,99714.38
2022-12-08T05:05:56.235Z,99716.88
2022-12-08T05:08:24.055Z,99721.78
2022-12-08T05:10:52.038Z,99718.25
2022-12-08T05:13:19.962Z,99709.81
2022-12-08T05:15:47.637Z,99707.88
2022-12-08T05:18:15.604Z,99712.28
2022-12-08T05:20:43.381Z,99708.06
2022-12-08T05:23:12.381Z,99713.00
2022-12-08T05:25:40.100Z,99707.72
2022-12-08T05:28:39.491Z,99697.00
2022-12-08T05:30:55.574Z,99703.44
2022-12-08T05:33:23.401Z,99702.66
2022-12-08T05:35:51.145Z,99696.78
2022-12-08T05:38:20.384Z,99699.56
2022-12-08T05:40:48.175Z,99692.34
2022-12-08T05:43:15.983Z,99695.25
2022-12-08T05:45:43.843Z,99691.06
2022-12-08T05:48:11.708Z,99693.75
2022-12-08T05:50:39.959Z,99688.06
2022-12-08T05:53:07.686Z,99687.31
2022-12-08T05:55:36.882Z,99686.09
2022-12-08T05:58:07.987Z,99682.53
2022-12-08T06:00:36.220Z,99687.53
2022-12-08T06:03:04.124Z,99686.31
2022-12-08T06:05:32.794Z,99688.03
2022-12-08T06:08:00.720Z,99684.41
2022-12-08T06:10:28.747Z,99685.25
2022-12-08T06:12:57.816Z,99682.78
2022-12-08T06:15:25.855Z,99674.75
2022-12-08T06:17:53.648Z,99687.63
2022-12-08T06:20:21.511Z,99684.69
2022-12-08T06:22:49.330Z,99681.06
2022-12-08T06:25:17.199Z,99686.53
2022-12-08T06:27:44.865Z,99672.66
2022-12-08T06:30:15.867Z,99680.31
2022-12-08T06:32:44.011Z,99674.13
2022-12-08T06:35:11.794Z,99672.75
2022-12-08T06:37:39.712Z,99676.72
2022-12-08T06:40:09.333Z,99671.59
2022-12-08T06:42:49.570Z,99681.06
2022-12-08T06:45:18.953Z,99673.91
2022-12-08T06:47:46.813Z,99683.66
2022-12-08T06:50:14.812Z,99678.38
2022-12-08T06:52:54.281Z,99681.72
2022-12-08T06:55:57.405Z,99682.91
2022-12-08T06:58:14.981Z,99688.16
2022-12-08T07:00:44.571Z,99690.78
2022-12-08T07:03:13.378Z,99686.41
2022-12-08T07:05:41.237Z,99690.13
2022-12-08T07:08:10.124Z,99683.25
2022-12-08T07:10:38.325Z,99689.69
2022-12-08T07:13:06.313Z,99694.00
2022-12-08T07:15:34.186Z,99696.81
2022-12-08T07:18:03.571Z,99699.81
2022-12-08T07:20:31.458Z,99693.16
2022-12-08T07:22:59.332Z,99701.47
2022-12-08T07:25:27.142Z,99692.59
2022-12-08T07:27:55.053Z,99693.16
2022-12-08T07:30:22.945Z,99706.50
2022-12-08T07:32:50.677Z,99700.06
2022-12-08T07:35:19.958Z,99698.53
2022-12-08T07:37:47.922Z,99704.69
2022-12-08T07:40:15.987Z,99701.56
2022-12-08T07:42:43.780Z,99704.06
2022-12-08T07:45:11.843Z,99698.41
2022-12-08T07:47:39.725Z,99704.72
2022-12-08T07:50:08.854Z,99698.41
2022-12-08T07:52:37.978Z,99701.00
2022-12-08T07:55:07.073Z,99698.41
2022-12-08T07:57:34.987Z,99694.56
2022-12-08T08:00:05.312Z,99695.28
2022-12-08T08:02:40.002Z,99703.00
2022-12-08T08:05:10.252Z,99697.84
2022-12-08T08:07:43.052Z,99703.09
2022-12-08T08:10:12.432Z,99699.69
2022-12-08T08:12:40.418Z,99706.72
2022-12-08T08:15:09.771Z,99699.13
2022-12-08T08:17:38.149Z,99704.16
2022-12-08T08:20:08.231Z,99701.47
2022-12-08T08:22:36.950Z,99706.75
2022-12-08T08:25:06.937Z,99707.63
2022-12-08T08:27:34.780Z,99701.94
2022-12-08T08:30:06.989Z,99707.78
2022-12-08T08:32:35.689Z,99710.72
2022-12-08T08:35:05.234Z,99713.06
2022-12-08T08:37:35.509Z,99712.09
2022-12-08T08:40:04.510Z,99714.63
2022-12-08T08:42:33.727Z,99717.53
2022-12-08T08:45:01.595Z,99716.00
2022-12-08T08:47:29.615Z,99724.06
2022-12-08T08:49:57.398Z,99724.56
2022-12-08T08:52:25.122Z,99724.91
2022-12-08T08:54:52.898Z,99714.75
2022-12-08T08:57:25.560Z,99720.00
2022-12-08T08:59:55.651Z,99722.38
2022-12-08T09:02:23.634Z,99726.25
2022-12-08T09:04:53.301Z,99717.13
2022-12-08T09:07:21.220Z,99728.75
2022-12-08T09:09:48.988Z,99726.38
2022-12-08T09:12:16.735Z,99721.63
2022-12-08T09:14:44.661Z,99721.38
2022-12-08T09:17:13.999Z,99723.84
2022-12-08T09:19:42.863Z,99726.06
2022-12-08T09:22:10.622Z,99722.53
2022-12-08T09:24:39.364Z,99725.81
2022-12-08T09:27:07.059Z,99717.78
2022-12-08T09:29:36.440Z,99720.91
2022-12-08T09:32:04.967Z,99722.16
2022-12-08T09:34:34.125Z,99722.47
2022-12-08T09:37:01.921Z,99715.03
2022-12-08T09:39:30.731Z,99727.28
2022-12-08T09:42:01.542Z,99728.25
2022-12-08T09:44:52.637Z,99734.69
2022-12-08T09:47:28.316Z,99725.09
2022-12-08T09:50:07.774Z,99733.41
2022-12-08T09:52:44.365Z,99733.72
2022-12-08T09:55:22.434Z,99734.84
2022-12-08T09:58:01.272Z,99736.78
2022-12-08T10:00:29.251Z,99736.91
2022-12-08T10:02:57.599Z,99732.09
2022-12-08T10:05:37.716Z,99734.69
2022-12-08T10:08:18.036Z,99734.78
2022-12-08T10:10:57.612Z,99724.63
2022-12-08T10:13:42.210Z,99730.06
2022-12-08T10:16:28.155Z,99724.31
2022-12-08T10:19:11.226Z,99716.41
2022-12-08T10:21:41.144Z,99717.34
2022-12-08T10:24:22.292Z,99707.50
2022-12-08T10:26:50.439Z,99708.38
2022-12-08T10:29:18.852Z,99706.91
2022-12-08T10:31:46.741Z,99698.25
2022-12-08T10:34:21.033Z,99704.91
2022-12-08T10:36:53.073Z,99704.00
2022-12-08T10:39:34.633Z,99705.88
2022-12-08T10:42:11.831Z,99704.59
2022-12-08T10:44:57.767Z,99694.75
2022-12-08T10:47:28.375Z,99692.53
2022-12-08T10:50:20.127Z,99694.06
2022-12-08T10:52:56.518Z,99699.09
2022-12-08T10:55:24.854Z,99691.88
2022-12-08T10:57:52.734Z,99689.69
2022-12-08T11:00:25.264Z,99689.47
2022-12-08T11:02:58.219Z,99684.56
2022-12-08T11:05:34.023Z,99690.13
2022-12-08T11:08:05.735Z,99691.00
2022-12-08T11:10:37.735Z,99680.69
2022-12-08T11:13:19.875Z,99686.38
2022-12-08T11:15:48.076Z,99683.56
2022-12-08T11:18:27.976Z,99685.63
2022-12-08T11:21:06.578Z,99686.84
2022-12-08T11:23:37.794Z,99680.56
2022-12-08T11:26:18.814Z,99678.94
2022-12-08T11:28:46.813Z,99673.91
2022-12-08T11:31:29.255Z,99672.41
2022-12-08T11:33:57.077Z,99674.72
2022-12-08T11:36:30.104Z,99668.31
2022-12-08T11:39:04.060Z,99663.25
2022-12-08T11:41:39.556Z,99673.53
2022-12-08T11:44:25.668Z,99673.75
2022-12-08T11:46:58.550Z,99670.88
2022-12-08T11:49:36.138Z,99674.50
2022-12-08T11:52:19.745Z,99668.34
2022-12-08T11:54:59.510Z,99669.81
2022-12-08T11:57:30.258Z,99663.84
2022-12-08T12:00:02.048Z,99664.31
2022-12-08T12:02:48.495Z,99670.88
2022-12-08T12:05:56.667Z,99671.94
2022-12-08T12:08:42.604Z,99660.94
2022-12-08T12:11:44.805Z,99662.66
2022-12-08T12:14:36.505Z,99659.63
2022-12-08T12:17:06.764Z,99660.00
2022-12-08T12:19:40.132Z,99658.38
2022-12-08T12:22:17.155Z,99659.28
2022-12-08T12:24:51.998Z,99657.88
2022-12-08T12:27:32.420Z,99658.28
2022-12-08T12:30:06.954Z,99659.81
2022-12-08T12:32:46.293Z,99657.94
2022-12-08T12:35:26.967Z,99654.50
2022-12-08T12:38:03.353Z,99656.03
2022-12-08T12:40:41.814Z,99656.03
2022-12-08T12:43:29.419Z,99655.25
2022-12-08T12:46:40.020Z,99655.97
2022-12-08T12:49:50.301Z,99648.63
2022-12-08T12:52:45.450Z,99647.19
2022-12-08T12:55:53.801Z,99647.69
2022-12-08T12:58:42.763Z,99652.44
2022-12-08T13:01:54.304Z,99650.03
2022-12-08T13:04:34.076Z,99642.84
2022-12-08T13:07:02.564Z,99637.75
2022-12-08T13:09:39.613Z,99645.94
2022-12-08T13:12:22.651Z,99648.44
2022-12-08T13:15:01.785Z,99648.63
2022-12-08T13:17:33.071Z,99645.97
2022-12-08T13:20:07.250Z,99654.88
2022-12-08T13:23:02.248Z,99644.09
2022-12-08T13:25:52.387Z,99653.69
2022-12-08T13:28:25.715Z,99650.22
2022-12-08T13:30:57.753Z,99647.00
2022-12-08T13:33:32.770Z,99633.13
2022-12-08T13:36:14.547Z,99641.78
2022-12-08T13:38:47.071Z,99650.91
2022-12-08T13:41:22.268Z,99644.97
2022-12-08T13:44:56.670Z,99644.41
2022-12-08T13:58:37.473Z,99640.13
2022-12-08T14:01:13.412Z,99640.63
2022-12-08T14:04:21.753Z,99642.56
2022-12-08T14:06:44.276Z,99641.84
2022-12-08T14:09:17.258Z,99640.63
2022-12-08T14:11:53.276Z,99637.91
2022-12-08T14:14:54.304Z,99635.44
2022-12-08T14:17:20.729Z,99637.84
2022-12-08T14:19:57.607Z,99638.84
2022-12-08T14:22:35.870Z,99648.78
2022-12-08T14:25:07.609Z,99653.91
2022-12-08T14:27:38.478Z,99647.09
2022-12-08T14:30:18.766Z,99639.91
2022-12-08T14:32:50.092Z,99643.06
2022-12-08T14:35:26.914Z,99635.38
2022-12-08T14:37:58.611Z,99647.78
2022-12-08T14:40:35.967Z,99648.78
2022-12-08T14:43:16.943Z,99648.44
2022-12-08T14:45:53.490Z,99653.56
2022-12-08T14:48:25.575Z,99650.31
2022-12-08T14:51:05.098Z,99649.78
2022-12-08T14:53:40.000Z,99652.75
2022-12-08T14:56:17.519Z,99648.59
2022-12-08T14:58:46.532Z,99655.16
2022-12-08T15:01:21.102Z,99655.38
2022-12-08T15:03:51.449Z,99656.03
2022-12-08T15:06:23.375Z,99651.88
2022-12-08T15:08:55.211Z,99650.81
2022-12-08T15:11:35.916Z,99651.84
2022-12-08T15:14:04.160Z,99655.94
2022-12-08T15:16:39.986Z,99652.34
2022-12-08T15:19:28.243Z,99659.72
2022-12-08T15:22:01.701Z,99662.28
2022-12-08T15:24:30.894Z,99652.72
2022-12-08T15:26:58.913Z,99650.50
2022-12-08T15:29:30.252Z,99652.22
2022-12-08T15:32:01.336Z,99655.50
2022-12-08T15:34:29.240Z,99653.75
2022-12-08T15:36:58.710Z,99664.03
2022-12-08T15:39:36.114Z,99666.97
2022-12-08T15:42:11.947Z,99661.75
2022-12-08T15:44:40.027Z,99661.16
2022-12-08T15:47:15.618Z,99665.56
2022-12-08T15:49:43.976Z,99662.28
2022-12-08T15:52:17.181Z,99658.03
2022-12-08T15:54:45.142Z,99657.94
2022-12-08T15:57:48.793Z,99661.84
2022-12-08T16:00:51.667Z,99660.81
2022-12-08T16:04:09.042Z,99665.69
2022-12-08T16:09:17.464Z,99664.03
2022-12-08T16:12:07.204Z,99665.34
2022-12-08T16:17:26.207Z,99670.00
2022-12-08T16:19:54.149Z,99675.00
2022-12-08T16:25:19.874Z,99673.94
2022-12-08T16:28:05.330Z,99678.84
2022-12-08T16:30:37.002Z,99677.59
2022-12-08T16:33:05.320Z,99683.59
2022-12-08T16:35:33.357Z,99680.13
2022-12-08T16:38:01.389Z,99685.97
2022-12-08T16:40:30.977Z,99686.63
2022-12-08T16:42:59.016Z,99690.72
2022-12-08T16:45:29.490Z,99696.59
2022-12-08T16:48:00.205Z,99693.13
2022-12-08T16:50:31.508Z,99697.38
2022-12-08T16:53:03.258Z,99692.84
2022-12-08T16:55:33.942Z,99689.59
2022-12-08T16:58:05.618Z,99688.97
2022-12-08T17:00:37.473Z,99688.22
2022-12-08T17:03:08.089Z,99679.84
2022-12-08T17:05:39.076Z,99689.09
2022-12-08T17:08:07.421Z,99689.97
2022-12-08T17:10:40.114Z,99689.50
2022-12-08T17:13:08.558Z,99695.72
2022-12-08T17:15:36.666Z,99684.72
2022-12-08T17:18:04.768Z,99693.47
2022-12-08T17:20:34.094Z,99695.38
2022-12-08T17:23:02.728Z,99691.97
2022-12-08T17:25:30.833Z,99698.78
2022-12-08T17:28:00.146Z,99694.09
2022-12-08T17:30:27.880Z,99692.56
2022-12-08T17:32:55.615Z,99691.69
2022-12-08T17:35:23.518Z,99684.25
2022-12-08T17:37:51.322Z,99685.25
2022-12-08T17:40:19.201Z,99688.91
2022-12-08T17:42:47.553Z,99693.47
2022-12-08T17:45:21.109Z,99686.66
2022-12-08T17:47:49.050Z,99697.03
2022-12-08T17:50:16.903Z,99692.13
2022-12-08T17:52:44.690Z,99694.00
2022-12-08T17:55:12.619Z,99689.94
2022-12-08T17:57:41.262Z,99684.09
2022-12-08T18:00:11.668Z,99681.59
2022-12-08T18:02:43.440Z,99682.47
2022-12-08T18:05:11.376Z,99677.38
2022-12-08T18:07:39.221Z,99676.50
2022-12-08T18:10:08.247Z,99667.19
2022-12-08T18:12:36.085Z,99674.16
2022-12-08T18:15:06.501Z,99669.97
2022-12-08T18:17:34.415Z,99670.91
2022-12-08T18:20:05.966Z,99671.84
2022-12-08T18:22:34.308Z,99669.97
2022-12-08T18:25:02.271Z,99668.69
2022-12-08T18:27:30.449Z,99671.28
2022-12-08T18:29:58.630Z,99671.84
2022-12-08T18:32:26.610Z,99674.06
2022-12-08T18:34:54.495Z,99678.38
2022-12-08T18:37:23.670Z,99688.22
2022-12-08T18:39:51.650Z,99688.06
2022-12-08T18:42:25.680Z,99684.09
2022-12-08T18:44:58.529Z,99680.94
2022-12-08T18:47:26.374Z,99689.94
2022-12-08T18:49:54.073Z,99685.16
2022-12-08T18:52:29.613Z,99687.81
2022-12-08T18:55:07.688Z,99688.78
2022-12-08T18:57:38.716Z,99687.25
2022-12-08T19:00:10.346Z,99689.22
2022-12-08T19:02:39.322Z,99689.69
2022-12-08T19:05:09.989Z,99689.91
2022-12-08T19:07:39.946Z,99688.16
2022-12-08T19:10:10.159Z,99686.72
2022-12-08T19:12:38.154Z,99687.03
2022-12-08T19:15:07.643Z,99695.72
2022-12-08T19:17:35.757Z,99698.41
2022-12-08T19:20:05.765Z,99692.75
2022-12-08T19:22:33.808Z,99691.09
2022-12-08T19:25:04.094Z,99696.84
2022-12-08T19:27:34.026Z,99701.28
2022-12-08T19:30:01.889Z,99694.53
2022-12-08T19:32:30.890Z,99692.75
2022-12-08T19:34:58.744Z,99698.28
2022-12-08T19:37:26.557Z,99698.25
2022-12-08T19:40:13.445Z,99699.88
2022-12-08T19:43:01.718Z,99698.91
2022-12-08T19:45:29.702Z,99705.22
2022-12-08T19:47:57.454Z,99697.03
2022-12-08T19:50:37.402Z,99697.13
2022-12-08T19:53:07.427Z,99690.34
2022-12-08T19:55:36.421Z,99692.09
2022-12-08T19:58:07.574Z,99691.13
2022-12-08T20:00:39.011Z,99689.53
2022-12-08T20:03:07.556Z,99691.31
2022-12-08T20:05:36.947Z,99694.75
2022-12-08T20:08:05.626Z,99693.72
2022-12-08T20:10:39.796Z,99694.38
2022-12-08T20:13:29.001Z,99691.69
2022-12-08T20:15:57.371Z,99692.59
2022-12-08T20:18:25.480Z,99697.81
2022-12-08T20:20:53.398Z,99698.72
2022-12-08T20:23:21.912Z,99698.53
2022-12-08T20:25:49.699Z,99698.25
2022-12-08T20:28:19.109Z,99703.13
2022-12-08T20:30:48.850Z,99702.59
2022-12-08T20:33:17.729Z,99710.84
2022-12-08T20:35:48.021Z,99714.63
2022-12-08T20:38:16.035Z,99717.66
2022-12-08T20:40:46.218Z,99716.50
2022-12-08T20:43:14.908Z,99717.63
2022-12-08T20:45:43.901Z,99713.94
2022-12-08T20:48:11.946Z,99715.59
2022-12-08T20:50:39.711Z,99712.41
2022-12-08T20:53:08.169Z,99712.38
2022-12-08T20:55:36.023Z,99717.19
2022-12-08T20:58:04.077Z,99724.03
2022-12-08T21:00:31.946Z,99720.09
2022-12-08T21:03:01.261Z,99719.06
2022-12-08T21:05:29.602Z,99720.09
2022-12-08T21:07:57.542Z,99718.38
2022-12-08T21:10:25.463Z,99717.50
2022-12-08T21:12:53.529Z,99711.72
2022-12-08T21:15:21.304Z,99708.66
2022-12-08T21:17:49.356Z,99703.91
2022-12-08T21:20:18.682Z,99703.91
2022-12-08T21:22:46.490Z,99705.75
2022-12-08T21:25:14.391Z,99698.16
2022-12-08T21:27:42.362Z,99700.41
2022-12-08T21:30:12.090Z,99708.22
2022-12-08T21:32:40.445Z,99714.75
2022-12-08T21:35:12.789Z,99710.56
2022-12-08T21:37:42.279Z,99720.19
2022-12-08T21:40:12.401Z,99720.59
2022-12-08T21:42:44.021Z,99718.72
2022-12-08T21:45:18.188Z,99717.34
2022-12-08T21:47:48.509Z,99727.22
2022-12-08T21:50:19.604Z,99718.44
2022-12-08T21:52:49.999Z,99721.97
2022-12-08T21:55:20.168Z,99722.09
2022-12-08T21:57:48.174Z,99720.34
2022-12-08T22:00:18.275Z,99715.59
2022-12-08T22:02:46.982Z,99719.16
2022-12-08T22:05:18.082Z,99712.97
2022-12-08T22:07:46.233Z,99711.72
2022-12-08T22:10:15.742Z,99714.09
2022-12-08T22:12:43.612Z,99715.94
2022-12-08T22:15:12.719Z,99715.69
2022-12-08T22:17:43.597Z,99708.28
2022-12-08T22:20:15.030Z,99714.22
2022-12-08T22:22:43.492Z,99717.78
2022-12-08T22:25:11.890Z,99718.25
2022-12-08T22:27:43.124Z,99714.00
2022-12-08T22:30:12.349Z,99720.72
2022-12-08T22:32:41.887Z,99718.16
2022-12-08T22:35:10.645Z,99718.94
2022-12-08T22:37:38.401Z,99715.09
2022-12-08T22:40:08.350Z,99715.09
2022-12-08T22:42:36.568Z,99709.50
2022-12-08T22:45:07.571Z,99711.34
2022-12-08T22:47:35.844Z,99715.84
2022-12-08T22:50:05.432Z,99721.50
2022-12-08T22:52:33.585Z,99724.03
2022-12-08T22:55:01.419Z,99709.63
2022-12-08T22:57:29.397Z,99710.56
2022-12-08T22:59:57.235Z,99707.78
2022-12-08T23:02:26.585Z,99718.25
2022-12-08T23:04:56.269Z,99713.94
2022-12-08T23:07:24.483Z,99719.13
2022-12-08T23:09:52.396Z,99715.47
2022-12-08T23:12:20.481Z,99724.03
2022-12-08T23:14:48.350Z,99719.13
2022-12-08T23:17:16.341Z,99721.75
2022-12-08T23:19:45.536Z,99721.22
2022-12-08T23:22:13.425Z,99718.03
2022-12-08T23:24:41.753Z,99712.06
2022-12-08T23:27:09.725Z,99717.41
2022-12-08T23:29:37.567Z,99714.06
2022-12-08T23:32:06.610Z,99712.28
2022-12-08T23:34:34.898Z,99707.75
2022-12-08T23:37:04.039Z,99711.50
2022-12-08T23:39:32.085Z,99716.63
2022-12-08T23:41:59.967Z,99717.50
2022-12-08T23:44:27.664Z,99719.47
2022-12-08T23:46:55.604Z,99709.97
2022-12-08T23:49:23.692Z,99715.50
2022-12-08T23:51:51.554Z,99716.38
2022-12-08T23:54:20.633Z,99706.38
2022-12-08T23:56:48.412Z,99701.25
2022-12-08T23:59:16.450Z,99700.41
